Time,TemperatureF,DewpointF,PressureIn,WindDirection,WindDirectionDegrees,WindSpeedMPH,WindSpeedGustMPH,Humidity,HourlyPrecipIn,Conditions,Clouds,dailyrainin,SolarRadiationWatts/m^2,SoftwareType,DateUTC
2013-09-17 00:01:00,73.4,71.6,30.09,SSE,159,0.0,0.0,94,0.00,,---,0.06,0.00,VWS V14.01,2013-09-17 04:01:00,
2013-09-17 00:02:00,73.3,71.5,30.09,SSE,159,0.0,0.0,94,0.00,,---,0.00,0.00,VWS V14.01,2013-09-17 04:02:00,
2013-09-17 00:06:00,73.3,71.5,30.09,SSE,159,0.0,0.0,94,0.00,,---,0.00,0.00,VWS V14.01,2013-09-17 04:06:00,
2013-09-17 00:11:00,73.2,71.4,30.09,SSE,159,0.0,0.0,94,0.00,,---,0.00,0.00,VWS V14.01,2013-09-17 04:11:00,
2013-09-17 00:16:00,73.2,71.4,30.09,SSE,159,0.0,0.0,94,0.00,,---,0.00,0.00,VWS V14.01,2013-09-17 04:16:00,
2013-09-17 00:21:00,73.1,71.6,30.09,SSE,159,0.0,0.0,95,0.00,,---,0.00,0.00,VWS V14.01,2013-09-17 04:21:00,
2013-09-17 00:27:00,73.0,71.5,30.10,SSE,159,0.0,0.0,95,0.00,,---,0.00,0.00,VWS V14.01,2013-09-17 04:27:00,
2013-09-17 00:32:00,73.0,71.5,30.10,SSE,159,0.0,0.0,95,0.00,,---,0.00,0.00,VWS V14.01,2013-09-17 04:32:00,
2013-09-17 00:37:00,73.0,71.5,30.09,SSE,159,0.0,0.0,95,0.00,,---,0.00,0.00,VWS V14.01,2013-09-17 04:37:00,
2013-09-17 00:42:00,72.9,71.4,30.09,SSE,159,0.0,0.0,95,0.00,,---,0.00,0.00,VWS V14.01,2013-09-17 04:42:00,
2013-09-17 00:47:00,72.8,71.3,30.10,SSE,159,0.0,0.0,95,0.00,,---,0.00,0.00,VWS V14.01,2013-09-17 04:47:00,
2013-09-17 00:52:00,72.7,71.2,30.09,SSE,159,0.0,0.0,95,0.00,,---,0.00,0.00,VWS V14.01,2013-09-17 04:52:00,
2013-09-17 00:57:00,72.6,71.1,30.10,SSE,159,0.0,0.0,95,0.00,,---,0.00,0.00,VWS V14.01,2013-09-17 04:57:00,
2013-09-17 01:02:00,72.5,71.0,30.09,SSE,159,0.0,0.0,95,0.00,,---,0.00,0.00,VWS V14.01,2013-09-17 05:02:00,
2013-09-17 01:08:00,72.4,70.9,30.09,SSE,159,0.0,0.0,95,0.00,,---,0.00,0.00,VWS V14.01,2013-09-17 05:08:00,
2013-09-17 01:13:00,72.4,70.9,30.09,SSE,159,0.0,0.0,95,0.00,,---,0.00,0.00,VWS V14.01,2013-09-17 05:13:00,
2013-09-17 01:18:00,72.4,70.9,30.09,SSE,159,0.0,0.0,95,0.00,,---,0.00,0.00,VWS V14.01,2013-09-17 05:18:00,
2013-09-17 01:23:00,72.5,71.0,30.09,SSE,159,0.0,0.0,95,0.00,,---,0.00,0.00,VWS V14.01,2013-09-17 05:23:00,
2013-09-17 01:28:00,72.5,71.0,30.09,SSE,159,0.0,0.0,95,0.00,,---,0.00,0.00,VWS V14.01,2013-09-17 05:28:00,
2013-09-17 01:33:00,72.6,71.1,30.09,SSE,159,0.0,0.0,95,0.00,,---,0.00,0.00,VWS V14.01,2013-09-17 05:33:00,
2013-09-17 01:38:00,72.6,71.1,30.09,SSE,159,0.0,0.0,95,0.00,,---,0.00,0.00,VWS V14.01,2013-09-17 05:38:00,
2013-09-17 01:43:00,72.5,71.3,30.09,SSE,159,0.0,0.0,96,0.00,,---,0.00,0.00,VWS V14.01,2013-09-17 05:43:00,
2013-09-17 01:49:00,72.5,71.3,30.09,SSE,159,0.0,0.0,96,0.00,,---,0.00,0.00,VWS V14.01,2013-09-17 05:49:00,
2013-09-17 01:54:00,72.5,71.3,30.09,SSE,159,0.0,0.0,96,0.00,,---,0.00,0.00,VWS V14.01,2013-09-17 05:54:00,
2013-09-17 01:59:00,72.4,71.2,30.08,SSE,159,0.0,0.0,96,0.00,,---,0.00,0.00,VWS V14.01,2013-09-17 05:59:00,
2013-09-17 02:04:00,72.3,71.1,30.08,SSE,159,0.0,0.0,96,0.00,,---,0.00,0.00,VWS V14.01,2013-09-17 06:04:00,
2013-09-17 02:09:00,72.1,70.6,30.08,SSE,159,0.0,0.0,95,0.00,,---,0.00,0.00,VWS V14.01,2013-09-17 06:09:00,
2013-09-17 02:14:00,72.0,70.5,30.08,SSE,159,0.0,0.0,95,0.00,,---,0.00,0.00,VWS V14.01,2013-09-17 06:14:00,
2013-09-17 02:19:00,71.9,70.4,30.08,SSE,159,0.0,0.0,95,0.00,,---,0.00,0.00,VWS V14.01,2013-09-17 06:19:00,
2013-09-17 02:24:00,71.9,70.7,30.08,SSE,159,0.0,0.0,96,0.00,,---,0.00,0.00,VWS V14.01,2013-09-17 06:24:00,
2013-09-17 02:29:00,71.7,70.2,30.08,SSE,159,0.0,0.0,95,0.00,,---,0.00,0.00,VWS V14.01,2013-09-17 06:29:00,
2013-09-17 02:35:00,71.6,70.4,30.08,SSE,159,0.0,0.0,96,0.00,,---,0.00,0.00,VWS V14.01,2013-09-17 06:35:00,
2013-09-17 02:40:00,71.5,70.3,30.08,SSE,159,0.0,0.0,96,0.00,,---,0.00,0.00,VWS V14.01,2013-09-17 06:40:00,
2013-09-17 02:45:00,71.5,70.0,30.08,SSE,159,0.0,0.0,95,0.00,,---,0.00,0.00,VWS V14.01,2013-09-17 06:45:00,
2013-09-17 02:50:00,71.5,70.3,30.08,SSE,159,0.0,0.0,96,0.00,,---,0.00,0.00,VWS V14.01,2013-09-17 06:50:00,
2013-09-17 02:55:00,71.6,70.4,30.08,SSE,159,0.0,0.0,96,0.00,,---,0.00,0.00,VWS V14.01,2013-09-17 06:55:00,
2013-09-17 03:00:00,71.7,70.5,30.08,SSE,159,0.0,0.0,96,0.00,,---,0.00,0.00,VWS V14.01,2013-09-17 07:00:00,
2013-09-17 03:05:00,71.7,70.5,30.08,SSE,159,0.0,0.0,96,0.00,,---,0.00,0.00,VWS V14.01,2013-09-17 07:05:00,
2013-09-17 03:10:00,71.7,70.5,30.08,SSE,159,0.0,0.0,96,0.00,,---,0.00,0.00,VWS V14.01,2013-09-17 07:10:00,
2013-09-17 03:15:00,71.6,70.4,30.08,SSE,159,0.0,0.0,96,0.00,,---,0.00,0.00,VWS V14.01,2013-09-17 07:15:00,
2013-09-17 03:20:00,71.7,70.5,30.09,SSE,159,0.0,0.0,96,0.00,,---,0.00,0.00,VWS V14.01,2013-09-17 07:20:00,
2013-09-17 03:26:00,71.9,70.7,30.09,SSE,159,0.0,0.0,96,0.00,,---,0.00,0.00,VWS V14.01,2013-09-17 07:26:00,
2013-09-17 03:31:00,72.1,70.9,30.09,SSE,149,0.0,0.0,96,0.00,,---,0.00,0.00,VWS V14.01,2013-09-17 07:31:00,
2013-09-17 03:36:00,72.3,71.1,30.09,SSE,147,0.0,0.0,96,0.00,,---,0.00,0.00,VWS V14.01,2013-09-17 07:36:00,
2013-09-17 03:41:00,72.4,71.5,30.10,SE,146,0.0,1.0,97,0.00,,---,0.00,0.00,VWS V14.01,2013-09-17 07:41:00,
2013-09-17 03:46:00,72.6,71.4,30.10,North,350,0.0,9.0,96,0.00,,---,0.00,0.00,VWS V14.01,2013-09-17 07:46:00,
2013-09-17 03:51:00,72.7,71.5,30.10,North,355,0.0,0.0,96,0.00,,---,0.00,0.00,VWS V14.01,2013-09-17 07:51:00,
2013-09-17 03:56:00,72.5,71.3,30.10,East,98,0.0,0.0,96,0.00,,---,0.00,0.00,VWS V14.01,2013-09-17 07:56:00,
2013-09-17 04:02:00,72.2,71.0,30.10,East,96,0.0,0.0,96,0.00,,---,0.00,0.00,VWS V14.01,2013-09-17 08:02:00,
2013-09-17 04:07:00,72.0,70.8,30.10,East,93,0.0,1.0,96,0.00,,---,0.00,0.00,VWS V14.01,2013-09-17 08:07:00,
2013-09-17 04:12:00,71.8,70.6,30.10,East,92,0.0,0.0,96,0.00,,---,0.00,0.00,VWS V14.01,2013-09-17 08:12:00,
2013-09-17 04:17:00,71.6,70.4,30.10,North,360,0.0,1.0,96,0.00,,---,0.00,0.00,VWS V14.01,2013-09-17 08:17:00,
2013-09-17 04:22:00,71.3,69.8,30.10,North,10,0.0,3.0,95,0.00,,---,0.00,0.00,VWS V14.01,2013-09-17 08:22:00,
2013-09-17 04:27:00,71.2,69.7,30.10,NNE,16,0.0,1.0,95,0.00,,---,0.00,0.00,VWS V14.01,2013-09-17 08:27:00,
2013-09-17 04:32:00,71.1,69.3,30.11,North,349,0.0,0.0,94,0.00,,---,0.00,0.00,VWS V14.01,2013-09-17 08:32:00,
2013-09-17 04:37:00,71.0,68.9,30.11,NE,44,0.0,0.0,93,0.00,,---,0.00,0.00,VWS V14.01,2013-09-17 08:37:00,
2013-09-17 04:42:00,71.1,68.7,30.11,ENE,57,0.0,4.0,92,0.00,,---,0.00,0.00,VWS V14.01,2013-09-17 08:42:00,
2013-09-17 04:47:00,71.1,68.3,30.11,WNW,292,0.0,2.0,91,0.00,,---,0.00,0.00,VWS V14.01,2013-09-17 08:47:00,
2013-09-17 04:52:00,71.1,68.0,30.11,NW,323,0.0,5.0,90,0.00,,---,0.00,0.00,VWS V14.01,2013-09-17 08:52:00,
2013-09-17 04:57:00,71.1,68.0,30.11,NW,323,0.0,0.0,90,0.00,,---,0.00,0.00,VWS V14.01,2013-09-17 08:57:00,
2013-09-17 05:03:00,71.1,67.7,30.11,NW,324,0.0,1.0,89,0.00,,---,0.00,0.00,VWS V14.01,2013-09-17 09:03:00,
2013-09-17 05:08:00,71.0,67.6,30.11,NW,324,0.0,0.0,89,0.00,,---,0.00,0.00,VWS V14.01,2013-09-17 09:08:00,
2013-09-17 05:13:00,71.0,67.3,30.11,NNW,333,0.0,5.0,88,0.00,,---,0.00,0.00,VWS V14.01,2013-09-17 09:13:00,
2013-09-17 05:18:00,71.0,67.3,30.12,NNW,333,0.0,0.0,88,0.00,,---,0.00,0.00,VWS V14.01,2013-09-17 09:18:00,
2013-09-17 05:23:00,70.9,67.2,30.12,NNW,336,0.0,0.0,88,0.00,,---,0.00,0.00,VWS V14.01,2013-09-17 09:23:00,
2013-09-17 05:28:00,70.8,67.1,30.12,NNW,338,0.0,0.0,88,0.00,,---,0.00,0.00,VWS V14.01,2013-09-17 09:28:00,
2013-09-17 05:33:00,70.8,66.7,30.12,ENE,72,0.0,5.0,87,0.00,,---,0.00,0.00,VWS V14.01,2013-09-17 09:33:00,
2013-09-17 05:38:00,70.7,66.7,30.12,ESE,105,6.0,7.0,87,0.00,,---,0.00,0.00,VWS V14.01,2013-09-17 09:38:00,
2013-09-17 05:43:00,70.7,66.7,30.12,ESE,104,0.0,5.0,87,0.00,,---,0.00,0.00,VWS V14.01,2013-09-17 09:43:00,
2013-09-17 05:48:00,70.7,66.7,30.12,ESE,103,0.0,0.0,87,0.00,,---,0.00,0.00,VWS V14.01,2013-09-17 09:48:00,
2013-09-17 05:53:00,70.7,66.7,30.13,NE,40,0.0,5.0,87,0.00,,---,0.00,0.00,VWS V14.01,2013-09-17 09:53:00,
2013-09-17 05:59:00,70.6,66.6,30.13,NNE,24,0.0,0.0,87,0.00,,---,0.00,0.00,VWS V14.01,2013-09-17 09:59:00,
2013-09-17 06:04:00,70.6,66.6,30.13,NNE,24,0.0,0.0,87,0.00,,---,0.00,0.00,VWS V14.01,2013-09-17 10:04:00,
2013-09-17 06:09:00,70.6,66.2,30.13,NNE,27,0.0,0.0,86,0.00,,---,0.00,0.00,VWS V14.01,2013-09-17 10:09:00,
2013-09-17 06:14:00,70.5,66.1,30.14,NNE,30,0.0,0.0,86,0.00,,---,0.00,0.00,VWS V14.01,2013-09-17 10:14:00,
2013-09-17 06:19:00,70.5,66.1,30.14,East,81,0.0,1.0,86,0.00,,---,0.00,0.00,VWS V14.01,2013-09-17 10:19:00,
2013-09-17 06:24:00,70.4,66.0,30.14,East,80,0.0,0.0,86,0.00,,---,0.00,0.00,VWS V14.01,2013-09-17 10:24:00,
2013-09-17 06:29:00,70.3,65.9,30.15,ENE,78,0.0,0.0,86,0.00,,---,0.00,0.00,VWS V14.01,2013-09-17 10:29:00,
2013-09-17 06:34:00,70.3,65.9,30.15,ESE,109,0.0,1.0,86,0.00,,---,0.00,0.00,VWS V14.01,2013-09-17 10:34:00,
2013-09-17 06:39:00,70.2,65.8,30.15,ESE,109,0.0,0.0,86,0.00,,---,0.00,0.00,VWS V14.01,2013-09-17 10:39:00,
2013-09-17 06:44:00,70.1,65.7,30.15,ESE,102,0.0,0.0,86,0.00,,---,0.00,0.00,VWS V14.01,2013-09-17 10:44:00,
2013-09-17 06:49:00,70.0,65.6,30.16,East,85,0.0,0.0,86,0.00,,---,0.00,0.00,VWS V14.01,2013-09-17 10:49:00,
2013-09-17 06:55:00,69.9,65.5,30.16,East,94,0.0,0.0,86,0.00,,---,0.00,0.00,VWS V14.01,2013-09-17 10:55:00,
2013-09-17 07:00:00,69.8,65.4,30.16,East,94,0.0,0.0,86,0.00,,---,0.00,0.00,VWS V14.01,2013-09-17 11:00:00,
2013-09-17 07:05:00,69.7,65.3,30.16,East,86,0.0,0.0,86,0.00,,---,0.00,0.00,VWS V14.01,2013-09-17 11:05:00,
2013-09-17 07:10:00,69.7,65.7,30.17,East,86,0.0,0.0,87,0.00,,---,0.00,0.00,VWS V14.01,2013-09-17 11:10:00,
2013-09-17 07:15:00,69.6,65.6,30.17,East,88,0.0,1.0,87,0.00,,---,0.00,5.00,VWS V14.01,2013-09-17 11:15:00,
2013-09-17 07:20:00,69.4,65.4,30.17,East,90,0.0,0.0,87,0.00,,---,0.00,9.00,VWS V14.01,2013-09-17 11:20:00,
2013-09-17 07:25:00,69.4,65.4,30.18,ESE,112,0.0,0.0,87,0.00,,---,0.00,12.00,VWS V14.01,2013-09-17 11:25:00,
2013-09-17 07:30:00,69.3,65.3,30.18,ESE,103,0.0,0.0,87,0.00,,---,0.00,21.00,VWS V14.01,2013-09-17 11:30:00,
2013-09-17 07:35:00,69.3,65.3,30.18,NE,55,0.0,0.0,87,0.00,,---,0.00,30.00,VWS V14.01,2013-09-17 11:35:00,
2013-09-17 07:40:00,69.3,65.3,30.18,NE,55,0.0,0.0,87,0.00,,---,0.00,40.00,VWS V14.01,2013-09-17 11:40:00,
2013-09-17 07:45:00,69.3,65.6,30.18,NE,55,0.0,0.0,88,0.00,,---,0.00,42.00,VWS V14.01,2013-09-17 11:45:00,
2013-09-17 07:50:00,69.3,65.6,30.19,NE,54,0.0,0.0,88,0.00,,---,0.00,47.00,VWS V14.01,2013-09-17 11:50:00,
2013-09-17 07:55:00,69.3,65.6,30.18,NE,44,0.0,0.0,88,0.00,,---,0.00,49.00,VWS V14.01,2013-09-17 11:55:00,
2013-09-17 08:01:00,69.4,65.7,30.19,NE,44,0.0,0.0,88,0.00,,---,0.00,53.00,VWS V14.01,2013-09-17 12:01:00,
2013-09-17 08:06:00,69.4,65.7,30.19,NE,44,0.0,0.0,88,0.00,,---,0.00,60.00,VWS V14.01,2013-09-17 12:06:00,
2013-09-17 08:11:00,69.4,65.4,30.19,NE,44,0.0,0.0,87,0.00,,---,0.00,62.00,VWS V14.01,2013-09-17 12:11:00,
2013-09-17 08:16:00,69.4,65.0,30.19,North,355,0.0,0.0,86,0.00,,---,0.00,58.00,VWS V14.01,2013-09-17 12:16:00,
2013-09-17 08:21:00,69.5,65.1,30.19,NE,34,0.0,0.0,86,0.00,,---,0.00,56.00,VWS V14.01,2013-09-17 12:21:00,
2013-09-17 08:26:00,69.5,64.8,30.20,NNE,31,0.0,0.0,85,0.00,,---,0.00,56.00,VWS V14.01,2013-09-17 12:26:00,
2013-09-17 08:31:00,69.5,64.5,30.20,East,81,0.0,0.0,84,0.00,,---,0.00,72.00,VWS V14.01,2013-09-17 12:31:00,
2013-09-17 08:36:00,69.5,64.5,30.20,East,81,0.0,0.0,84,0.00,,---,0.00,84.00,VWS V14.01,2013-09-17 12:36:00,
2013-09-17 08:41:00,69.5,64.1,30.20,NNE,32,0.0,1.0,83,0.00,,---,0.00,90.00,VWS V14.01,2013-09-17 12:41:00,
2013-09-17 08:46:00,69.6,64.2,30.20,SE,131,0.0,0.0,83,0.00,,---,0.00,93.00,VWS V14.01,2013-09-17 12:46:00,
2013-09-17 08:52:00,69.6,64.2,30.20,ESE,123,0.0,0.0,83,0.00,,---,0.00,100.00,VWS V14.01,2013-09-17 12:52:00,
2013-09-17 08:57:00,69.7,64.3,30.21,ESE,115,0.0,0.0,83,0.00,,---,0.00,116.00,VWS V14.01,2013-09-17 12:57:00,
2013-09-17 09:02:00,69.8,64.4,30.21,ESE,123,0.0,0.0,83,0.00,,---,0.00,120.00,VWS V14.01,2013-09-17 13:02:00,
2013-09-17 09:07:00,69.9,64.2,30.21,ESE,109,0.0,1.0,82,0.00,,---,0.00,144.00,VWS V14.01,2013-09-17 13:07:00,
2013-09-17 09:12:00,69.9,64.2,30.21,East,87,3.0,3.0,82,0.00,,---,0.00,181.00,VWS V14.01,2013-09-17 13:12:00,
2013-09-17 09:17:00,70.1,64.4,30.21,ESE,111,0.0,4.0,82,0.00,,---,0.00,193.00,VWS V14.01,2013-09-17 13:17:00,
2013-09-17 09:22:00,70.3,64.2,30.21,NNE,32,1.0,4.0,81,0.00,,---,0.00,197.00,VWS V14.01,2013-09-17 13:22:00,
2013-09-17 09:27:00,70.5,64.4,30.21,NE,37,0.0,0.0,81,0.00,,---,0.00,200.00,VWS V14.01,2013-09-17 13:27:00,
2013-09-17 09:32:00,70.7,64.6,30.21,ESE,109,4.0,6.0,81,0.00,,---,0.00,190.00,VWS V14.01,2013-09-17 13:32:00,
2013-09-17 09:38:00,70.8,64.0,30.21,ENE,78,0.0,3.0,79,0.00,,---,0.00,202.00,VWS V14.01,2013-09-17 13:38:00,
2013-09-17 09:43:00,71.0,64.5,30.22,East,79,0.0,0.0,80,0.00,,---,0.00,322.00,VWS V14.01,2013-09-17 13:43:00,
2013-09-17 09:48:00,71.2,64.4,30.22,ESE,118,0.0,0.0,79,0.00,,---,0.00,278.00,VWS V14.01,2013-09-17 13:48:00,
2013-09-17 09:53:00,71.4,64.2,30.22,ESE,118,2.0,8.0,78,0.00,,---,0.00,343.00,VWS V14.01,2013-09-17 13:53:00,
2013-09-17 09:58:00,71.9,64.7,30.22,NNE,24,0.0,3.0,78,0.00,,---,0.00,547.00,VWS V14.01,2013-09-17 13:58:00,
2013-09-17 10:03:00,72.4,64.8,30.22,NNW,348,0.0,4.0,77,0.00,,---,0.00,387.00,VWS V14.01,2013-09-17 14:03:00,
2013-09-17 10:08:00,73.0,64.2,30.22,North,5,0.0,5.0,74,0.00,,---,0.00,570.00,VWS V14.01,2013-09-17 14:08:00,
2013-09-17 10:13:00,73.5,64.7,30.23,ESE,103,2.0,9.0,74,0.00,,---,0.00,568.00,VWS V14.01,2013-09-17 14:13:00,
2013-09-17 10:18:00,73.9,65.1,30.23,NE,56,2.0,8.0,74,0.00,,---,0.00,580.00,VWS V14.01,2013-09-17 14:18:00,
2013-09-17 10:23:00,74.3,64.3,30.23,North,5,6.0,6.0,71,0.00,,---,0.00,540.00,VWS V14.01,2013-09-17 14:23:00,
2013-09-17 10:28:00,74.6,63.8,30.23,NNE,24,2.0,2.0,69,0.00,,---,0.00,642.00,VWS V14.01,2013-09-17 14:28:00,
2013-09-17 10:33:00,74.8,64.0,30.23,NNW,338,5.0,6.0,69,0.00,,---,0.00,705.00,VWS V14.01,2013-09-17 14:33:00,
2013-09-17 10:39:00,75.0,64.2,30.23,ENE,76,3.0,10.0,69,0.00,,---,0.00,691.00,VWS V14.01,2013-09-17 14:39:00,
2013-09-17 10:44:00,75.2,63.9,30.24,NNE,33,1.0,4.0,68,0.00,,---,0.00,638.00,VWS V14.01,2013-09-17 14:44:00,
2013-09-17 10:49:00,74.9,63.2,30.24,ESE,111,4.0,7.0,67,0.00,,---,0.00,338.00,VWS V14.01,2013-09-17 14:49:00,
2013-09-17 10:54:00,74.6,63.8,30.23,NNE,29,0.0,7.0,69,0.00,,---,0.00,687.00,VWS V14.01,2013-09-17 14:54:00,
2013-09-17 10:59:00,74.8,64.4,30.24,East,96,0.0,7.0,70,0.00,,---,0.00,747.00,VWS V14.01,2013-09-17 14:59:00,
2013-09-17 11:04:00,75.0,63.3,30.23,NNE,19,4.0,4.0,67,0.00,,---,0.00,355.00,VWS V14.01,2013-09-17 15:04:00,
2013-09-17 11:09:00,74.9,63.6,30.23,North,350,0.0,5.0,68,0.00,,---,0.00,376.00,VWS V14.01,2013-09-17 15:09:00,
2013-09-17 11:14:00,74.9,63.2,30.23,North,355,5.0,5.0,67,0.00,,---,0.00,403.00,VWS V14.01,2013-09-17 15:14:00,
2013-09-17 11:20:00,74.8,62.7,30.23,NNW,341,3.0,11.0,66,0.00,,---,0.00,475.00,VWS V14.01,2013-09-17 15:20:00,
2013-09-17 11:25:00,75.0,63.7,30.23,North,5,0.0,8.0,68,0.00,,---,0.00,768.00,VWS V14.01,2013-09-17 15:25:00,
2013-09-17 11:30:00,75.6,64.3,30.23,North,9,0.0,5.0,68,0.00,,---,0.00,628.00,VWS V14.01,2013-09-17 15:30:00,
2013-09-17 11:35:00,76.1,63.5,30.23,East,84,0.0,5.0,65,0.00,,---,0.00,610.00,VWS V14.01,2013-09-17 15:35:00,
2013-09-17 11:40:00,76.4,63.8,30.23,ENE,58,1.0,1.0,65,0.00,,---,0.00,559.00,VWS V14.01,2013-09-17 15:40:00,
2013-09-17 11:45:00,76.6,63.1,30.23,East,84,0.0,0.0,63,0.00,,---,0.00,459.00,VWS V14.01,2013-09-17 15:45:00,
2013-09-17 11:50:00,76.9,63.8,30.23,SE,128,0.0,0.0,64,0.00,,---,0.00,466.00,VWS V14.01,2013-09-17 15:50:00,
2013-09-17 11:55:00,77.1,64.0,30.23,SE,129,0.0,0.0,64,0.00,,---,0.00,432.00,VWS V14.01,2013-09-17 15:55:00,
2013-09-17 12:00:00,77.2,64.1,30.23,NNE,20,0.0,0.0,64,0.00,,---,0.00,485.00,VWS V14.01,2013-09-17 16:00:00,
2013-09-17 12:06:00,77.3,63.7,30.23,North,355,0.0,1.0,63,0.00,,---,0.00,492.00,VWS V14.01,2013-09-17 16:06:00,
2013-09-17 12:11:00,77.4,63.8,30.23,East,90,2.0,2.0,63,0.00,,---,0.00,508.00,VWS V14.01,2013-09-17 16:11:00,
2013-09-17 12:16:00,77.4,63.4,30.23,East,91,0.0,0.0,62,0.00,,---,0.00,696.00,VWS V14.01,2013-09-17 16:16:00,
2013-09-17 12:21:00,77.7,64.1,30.23,East,91,1.0,8.0,63,0.00,,---,0.00,1021.00,VWS V14.01,2013-09-17 16:21:00,
2013-09-17 12:26:00,78.3,64.2,30.23,ESE,118,4.0,8.0,62,0.00,,---,0.00,986.00,VWS V14.01,2013-09-17 16:26:00,
2013-09-17 12:31:00,78.8,64.2,30.23,NNE,32,3.0,4.0,61,0.00,,---,0.00,939.00,VWS V14.01,2013-09-17 16:31:00,
2013-09-17 12:36:00,79.1,64.0,30.23,NNE,17,0.0,4.0,60,0.00,,---,0.00,932.00,VWS V14.01,2013-09-17 16:36:00,
2013-09-17 12:42:00,79.4,64.3,30.22,ENE,71,2.0,7.0,60,0.00,,---,0.00,928.00,VWS V14.01,2013-09-17 16:42:00,
2013-09-17 12:47:00,79.6,65.0,30.23,East,82,0.0,4.0,61,0.00,,---,0.00,991.00,VWS V14.01,2013-09-17 16:47:00,
2013-09-17 12:52:00,79.8,64.7,30.22,NNE,23,0.0,9.0,60,0.00,,---,0.00,828.00,VWS V14.01,2013-09-17 16:52:00,
2013-09-17 12:57:00,79.9,65.3,30.22,NE,36,2.0,5.0,61,0.00,,---,0.00,960.00,VWS V14.01,2013-09-17 16:57:00,
2013-09-17 13:02:00,80.2,65.1,30.22,ENE,72,0.0,7.0,60,0.00,,---,0.00,881.00,VWS V14.01,2013-09-17 17:02:00,
2013-09-17 13:07:00,80.3,64.7,30.22,NE,36,9.0,9.0,59,0.00,,---,0.00,1020.00,VWS V14.01,2013-09-17 17:07:00,
2013-09-17 13:12:00,80.2,65.1,30.21,ESE,103,0.0,8.0,60,0.00,,---,0.00,895.00,VWS V14.01,2013-09-17 17:12:00,
2013-09-17 13:18:00,80.3,64.7,30.21,SE,142,3.0,11.0,59,0.00,,---,0.00,949.00,VWS V14.01,2013-09-17 17:18:00,
2013-09-17 13:23:00,80.4,64.8,30.21,NNE,30,2.0,10.0,59,0.00,,---,0.00,963.00,VWS V14.01,2013-09-17 17:23:00,
2013-09-17 13:28:00,80.3,64.7,30.21,East,87,0.0,4.0,59,0.00,,---,0.00,991.00,VWS V14.01,2013-09-17 17:28:00,
2013-09-17 13:33:00,80.5,65.8,30.20,North,5,0.0,9.0,61,0.00,,---,0.00,1007.00,VWS V14.01,2013-09-17 17:33:00,
2013-09-17 13:38:00,80.8,65.2,30.20,North,349,5.0,14.0,59,0.00,,---,0.00,689.00,VWS V14.01,2013-09-17 17:38:00,
2013-09-17 13:43:00,80.9,65.2,30.20,NE,55,0.0,7.0,59,0.00,,---,0.00,1025.00,VWS V14.01,2013-09-17 17:43:00,
2013-09-17 13:48:00,81.0,64.3,30.19,North,9,0.0,4.0,57,0.00,,---,0.00,777.00,VWS V14.01,2013-09-17 17:48:00,
2013-09-17 13:53:00,81.1,64.9,30.20,ENE,65,6.0,8.0,58,0.00,,---,0.00,932.00,VWS V14.01,2013-09-17 17:53:00,
2013-09-17 13:58:00,81.0,64.8,30.19,NNW,347,5.0,8.0,58,0.00,,---,0.00,889.00,VWS V14.01,2013-09-17 17:58:00,
2013-09-17 14:04:00,81.2,64.5,30.19,ENE,69,0.0,4.0,57,0.00,,---,0.00,905.00,VWS V14.01,2013-09-17 18:04:00,
2013-09-17 14:09:00,81.7,65.0,30.19,NNE,30,1.0,4.0,57,0.00,,---,0.00,837.00,VWS V14.01,2013-09-17 18:09:00,
2013-09-17 14:14:00,81.8,64.1,30.19,ENE,59,1.0,12.0,55,0.00,,---,0.00,939.00,VWS V14.01,2013-09-17 18:14:00,
2013-09-17 14:19:00,81.6,63.9,30.19,East,92,2.0,8.0,55,0.00,,---,0.00,926.00,VWS V14.01,2013-09-17 18:19:00,
2013-09-17 14:25:00,81.6,64.4,30.19,ESE,115,6.0,11.0,56,0.00,,---,0.00,534.00,VWS V14.01,2013-09-17 18:25:00,
2013-09-17 14:30:00,81.6,64.4,30.19,North,360,0.0,7.0,56,0.00,,---,0.00,515.00,VWS V14.01,2013-09-17 18:30:00,
2013-09-17 14:35:00,81.5,64.3,30.19,North,350,8.0,10.0,56,0.00,,---,0.00,686.00,VWS V14.01,2013-09-17 18:35:00,
2013-09-17 14:40:00,81.4,64.7,30.19,NE,53,0.0,13.0,57,0.00,,---,0.00,856.00,VWS V14.01,2013-09-17 18:40:00,
2013-09-17 14:45:00,81.6,65.9,30.19,ENE,65,0.0,3.0,59,0.00,,---,0.00,795.00,VWS V14.01,2013-09-17 18:45:00,
2013-09-17 14:50:00,81.8,65.6,30.18,NNE,13,9.0,14.0,58,0.00,,---,0.00,744.00,VWS V14.01,2013-09-17 18:50:00,
2013-09-17 14:55:00,81.8,65.6,30.18,NNE,12,4.0,10.0,58,0.00,,---,0.00,824.00,VWS V14.01,2013-09-17 18:55:00,
2013-09-17 15:00:00,81.8,65.6,30.18,NE,55,0.0,8.0,58,0.00,,---,0.00,819.00,VWS V14.01,2013-09-17 19:00:00,
2013-09-17 15:05:00,82.0,65.3,30.18,NNE,25,0.0,2.0,57,0.00,,---,0.00,738.00,VWS V14.01,2013-09-17 19:05:00,
2013-09-17 15:10:00,82.3,65.6,30.18,NE,36,0.0,0.0,57,0.00,,---,0.00,930.00,VWS V14.01,2013-09-17 19:10:00,
2013-09-17 15:15:00,82.3,65.1,30.17,North,360,0.0,0.0,56,0.00,,---,0.00,570.00,VWS V14.01,2013-09-17 19:15:00,
2013-09-17 15:20:00,82.3,65.6,30.17,ESE,107,0.0,0.0,57,0.00,,---,0.00,747.00,VWS V14.01,2013-09-17 19:20:00,
2013-09-17 15:25:00,82.5,65.2,30.17,ENE,68,0.0,1.0,56,0.00,,---,0.00,682.00,VWS V14.01,2013-09-17 19:25:00,
2013-09-17 15:31:00,82.5,65.2,30.17,NNE,17,4.0,7.0,56,0.00,,---,0.00,724.00,VWS V14.01,2013-09-17 19:31:00,
2013-09-17 15:36:00,82.5,65.2,30.17,ESE,110,2.0,3.0,56,0.00,,---,0.00,780.00,VWS V14.01,2013-09-17 19:36:00,
2013-09-17 15:41:00,82.7,65.9,30.16,NNE,27,0.0,0.0,57,0.00,,---,0.00,708.00,VWS V14.01,2013-09-17 19:41:00,
2013-09-17 15:46:00,83.1,65.3,30.16,NE,34,6.0,9.0,55,0.00,,---,0.00,691.00,VWS V14.01,2013-09-17 19:46:00,
2013-09-17 15:51:00,82.8,65.0,30.16,North,5,5.0,5.0,55,0.00,,---,0.00,689.00,VWS V14.01,2013-09-17 19:51:00,
2013-09-17 15:56:00,82.4,66.7,30.16,North,355,2.0,10.0,59,0.00,,---,0.00,664.00,VWS V14.01,2013-09-17 19:56:00,
2013-09-17 16:01:00,82.2,65.5,30.16,NNE,22,10.0,10.0,57,0.00,,---,0.00,668.00,VWS V14.01,2013-09-17 20:01:00,
2013-09-17 16:06:00,81.9,64.7,30.16,ENE,59,2.0,8.0,56,0.00,,---,0.00,592.00,VWS V14.01,2013-09-17 20:06:00,
2013-09-17 16:11:00,81.7,65.0,30.16,NW,322,0.0,1.0,57,0.00,,---,0.00,475.00,VWS V14.01,2013-09-17 20:11:00,
2013-09-17 16:16:00,81.7,65.5,30.16,ENE,74,0.0,0.0,58,0.00,,---,0.00,564.00,VWS V14.01,2013-09-17 20:16:00,
2013-09-17 16:22:00,81.7,65.0,30.16,NE,41,0.0,0.0,57,0.00,,---,0.00,645.00,VWS V14.01,2013-09-17 20:22:00,
2013-09-17 16:27:00,81.9,65.7,30.16,NE,43,0.0,2.0,58,0.00,,---,0.00,408.00,VWS V14.01,2013-09-17 20:27:00,
2013-09-17 16:32:00,81.8,64.6,30.16,East,85,0.0,9.0,56,0.00,,---,0.00,366.00,VWS V14.01,2013-09-17 20:32:00,
2013-09-17 16:37:00,81.3,64.1,30.16,SE,125,5.0,5.0,56,0.00,,---,0.00,364.00,VWS V14.01,2013-09-17 20:37:00,
2013-09-17 16:42:00,81.1,64.4,30.16,East,82,0.0,1.0,57,0.00,,---,0.00,394.00,VWS V14.01,2013-09-17 20:42:00,
2013-09-17 16:47:00,81.0,64.8,30.16,NNE,21,0.0,1.0,58,0.00,,---,0.00,339.00,VWS V14.01,2013-09-17 20:47:00,
2013-09-17 16:52:00,81.1,65.4,30.16,NE,53,0.0,0.0,59,0.00,,---,0.00,441.00,VWS V14.01,2013-09-17 20:52:00,
2013-09-17 16:57:00,81.2,65.0,30.16,ESE,105,0.0,2.0,58,0.00,,---,0.00,410.00,VWS V14.01,2013-09-17 20:57:00,
2013-09-17 17:02:00,81.4,65.2,30.16,ESE,105,7.0,7.0,58,0.00,,---,0.00,424.00,VWS V14.01,2013-09-17 21:02:00,
2013-09-17 17:08:00,81.4,65.7,30.16,ESE,113,0.0,3.0,59,0.00,,---,0.00,422.00,VWS V14.01,2013-09-17 21:08:00,
2013-09-17 17:13:00,81.4,65.7,30.16,NE,36,0.0,4.0,59,0.00,,---,0.00,410.00,VWS V14.01,2013-09-17 21:13:00,
2013-09-17 17:18:00,81.5,66.3,30.16,NNE,24,5.0,6.0,60,0.00,,---,0.00,311.00,VWS V14.01,2013-09-17 21:18:00,
2013-09-17 17:23:00,81.5,65.8,30.16,North,5,0.0,3.0,59,0.00,,---,0.00,360.00,VWS V14.01,2013-09-17 21:23:00,
2013-09-17 17:28:00,81.4,64.2,30.16,ESE,113,0.0,8.0,56,0.00,,---,0.00,295.00,VWS V14.01,2013-09-17 21:28:00,
2013-09-17 17:33:00,81.0,63.8,30.16,NNE,16,0.0,11.0,56,0.00,,---,0.00,332.00,VWS V14.01,2013-09-17 21:33:00,
2013-09-17 17:38:00,80.8,64.7,30.16,NNE,19,1.0,2.0,58,0.00,,---,0.00,213.00,VWS V14.01,2013-09-17 21:38:00,
2013-09-17 17:44:00,80.5,63.9,30.16,ESE,115,2.0,7.0,57,0.00,,---,0.00,211.00,VWS V14.01,2013-09-17 21:44:00,
2013-09-17 17:49:00,80.1,63.0,30.16,NE,43,0.0,9.0,56,0.00,,---,0.00,200.00,VWS V14.01,2013-09-17 21:49:00,
2013-09-17 17:54:00,79.6,63.0,30.17,NE,49,0.0,8.0,57,0.00,,---,0.00,146.00,VWS V14.01,2013-09-17 21:54:00,
2013-09-17 17:59:00,79.3,63.3,30.16,NE,48,0.0,0.0,58,0.00,,---,0.00,156.00,VWS V14.01,2013-09-17 21:59:00,
2013-09-17 18:04:00,79.1,63.6,30.16,NE,47,0.0,0.0,59,0.00,,---,0.00,179.00,VWS V14.01,2013-09-17 22:04:00,
2013-09-17 18:09:00,79.1,63.6,30.16,North,360,0.0,2.0,59,0.00,,---,0.00,214.00,VWS V14.01,2013-09-17 22:09:00,
2013-09-17 18:14:00,79.1,63.6,30.16,North,360,0.0,0.0,59,0.00,,---,0.00,190.00,VWS V14.01,2013-09-17 22:14:00,
2013-09-17 18:19:00,79.2,63.7,30.16,North,360,0.0,0.0,59,0.00,,---,0.00,153.00,VWS V14.01,2013-09-17 22:19:00,
2013-09-17 18:24:00,79.2,63.7,30.16,North,360,0.0,0.0,59,0.00,,---,0.00,137.00,VWS V14.01,2013-09-17 22:24:00,
2013-09-17 18:29:00,79.1,64.0,30.16,ESE,107,0.0,3.0,60,0.00,,---,0.00,123.00,VWS V14.01,2013-09-17 22:29:00,
2013-09-17 18:35:00,79.0,63.5,30.16,ESE,107,0.0,0.0,59,0.00,,---,0.00,84.00,VWS V14.01,2013-09-17 22:35:00,
2013-09-17 18:40:00,78.9,63.4,30.16,ESE,108,0.0,2.0,59,0.00,,---,0.00,72.00,VWS V14.01,2013-09-17 22:40:00,
2013-09-17 18:45:00,78.7,63.7,30.16,ESE,108,0.0,0.0,60,0.00,,---,0.00,72.00,VWS V14.01,2013-09-17 22:45:00,
2013-09-17 18:50:00,78.6,63.6,30.16,ESE,108,0.0,0.0,60,0.00,,---,0.00,56.00,VWS V14.01,2013-09-17 22:50:00,
2013-09-17 18:55:00,78.3,63.3,30.16,ESE,108,0.0,0.0,60,0.00,,---,0.00,40.00,VWS V14.01,2013-09-17 22:55:00,
2013-09-17 19:00:00,78.1,63.6,30.16,ESE,108,0.0,0.0,61,0.00,,---,0.00,33.00,VWS V14.01,2013-09-17 23:00:00,
2013-09-17 19:05:00,77.8,63.3,30.16,ESE,108,0.0,0.0,61,0.00,,---,0.00,26.00,VWS V14.01,2013-09-17 23:05:00,
2013-09-17 19:11:00,77.4,62.9,30.16,ESE,108,0.0,0.0,61,0.00,,---,0.00,21.00,VWS V14.01,2013-09-17 23:11:00,
2013-09-17 19:16:00,77.0,63.0,30.16,ESE,108,0.0,0.0,62,0.00,,---,0.00,16.00,VWS V14.01,2013-09-17 23:16:00,
2013-09-17 19:21:00,76.7,63.2,30.16,ESE,108,0.0,0.0,63,0.00,,---,0.00,11.00,VWS V14.01,2013-09-17 23:21:00,
2013-09-17 19:26:00,76.3,63.2,30.16,ESE,108,0.0,0.0,64,0.00,,---,0.00,5.00,VWS V14.01,2013-09-17 23:26:00,
2013-09-17 19:31:00,75.9,63.3,30.16,ESE,108,0.0,0.0,65,0.00,,---,0.00,0.00,VWS V14.01,2013-09-17 23:31:00,
2013-09-17 19:36:00,75.5,63.4,30.16,ESE,108,0.0,0.0,66,0.00,,---,0.00,0.00,VWS V14.01,2013-09-17 23:36:00,
2013-09-17 19:41:00,75.1,63.4,30.16,ESE,108,0.0,0.0,67,0.00,,---,0.00,0.00,VWS V14.01,2013-09-17 23:41:00,
2013-09-17 19:47:00,74.7,63.0,30.16,ESE,108,0.0,0.0,67,0.00,,---,0.00,0.00,VWS V14.01,2013-09-17 23:47:00,
2013-09-17 19:52:00,74.2,63.0,30.16,ESE,108,0.0,0.0,68,0.00,,---,0.00,0.00,VWS V14.01,2013-09-17 23:52:00,
2013-09-17 19:57:00,73.8,63.0,30.16,ESE,108,0.0,0.0,69,0.00,,---,0.00,0.00,VWS V14.01,2013-09-17 23:57:00,
2013-09-17 20:02:00,73.4,63.0,30.17,ESE,108,0.0,0.0,70,0.00,,---,0.00,0.00,VWS V14.01,2013-09-18 00:02:00,
2013-09-17 20:07:00,73.0,63.5,30.16,ESE,108,0.0,0.0,72,0.00,,---,0.00,0.00,VWS V14.01,2013-09-18 00:07:00,
2013-09-17 20:12:00,72.6,63.5,30.17,ESE,108,0.0,0.0,73,0.00,,---,0.00,0.00,VWS V14.01,2013-09-18 00:12:00,
2013-09-17 20:17:00,72.3,63.2,30.17,ESE,108,0.0,0.0,73,0.00,,---,0.00,0.00,VWS V14.01,2013-09-18 00:17:00,
2013-09-17 20:23:00,71.9,62.8,30.18,ESE,108,0.0,0.0,73,0.00,,---,0.00,0.00,VWS V14.01,2013-09-18 00:23:00,
2013-09-17 20:28:00,71.6,63.3,30.18,ESE,108,0.0,0.0,75,0.00,,---,0.00,0.00,VWS V14.01,2013-09-18 00:28:00,
2013-09-17 20:33:00,71.2,62.9,30.18,ESE,108,0.0,0.0,75,0.00,,---,0.00,0.00,VWS V14.01,2013-09-18 00:33:00,
2013-09-17 20:38:00,70.9,62.6,30.18,ESE,108,0.0,0.0,75,0.00,,---,0.00,0.00,VWS V14.01,2013-09-18 00:38:00,
2013-09-17 20:43:00,70.6,62.7,30.18,ESE,108,0.0,0.0,76,0.00,,---,0.00,0.00,VWS V14.01,2013-09-18 00:43:00,
2013-09-17 20:48:00,70.3,62.8,30.18,ESE,108,0.0,0.0,77,0.00,,---,0.00,0.00,VWS V14.01,2013-09-18 00:48:00,
2013-09-17 20:53:00,70.1,62.6,30.18,ESE,108,0.0,0.0,77,0.00,,---,0.00,0.00,VWS V14.01,2013-09-18 00:53:00,
2013-09-17 20:59:00,69.8,62.3,30.19,ESE,108,0.0,0.0,77,0.00,,---,0.00,0.00,VWS V14.01,2013-09-18 00:59:00,
2013-09-17 21:04:00,69.5,62.3,30.19,ESE,108,0.0,0.0,78,0.00,,---,0.00,0.00,VWS V14.01,2013-09-18 01:04:00,
2013-09-17 21:09:00,69.2,62.4,30.19,ESE,108,0.0,0.0,79,0.00,,---,0.00,0.00,VWS V14.01,2013-09-18 01:09:00,
2013-09-17 21:14:00,68.9,62.5,30.19,ESE,108,0.0,0.0,80,0.00,,---,0.00,0.00,VWS V14.01,2013-09-18 01:14:00,
2013-09-17 21:19:00,68.7,62.3,30.19,ESE,108,0.0,0.0,80,0.00,,---,0.00,0.00,VWS V14.01,2013-09-18 01:19:00,
2013-09-17 21:24:00,68.5,62.1,30.19,ESE,108,0.0,0.0,80,0.00,,---,0.00,0.00,VWS V14.01,2013-09-18 01:24:00,
2013-09-17 21:29:00,68.3,62.2,30.19,ESE,108,0.0,0.0,81,0.00,,---,0.00,0.00,VWS V14.01,2013-09-18 01:29:00,
2013-09-17 21:35:00,68.1,62.1,30.19,ESE,108,0.0,0.0,81,0.00,,---,0.00,0.00,VWS V14.01,2013-09-18 01:35:00,
2013-09-17 21:40:00,67.9,61.9,30.19,ESE,108,0.0,0.0,81,0.00,,---,0.00,0.00,VWS V14.01,2013-09-18 01:40:00,
2013-09-17 21:45:00,67.8,61.8,30.20,ESE,108,0.0,0.0,81,0.00,,---,0.00,0.00,VWS V14.01,2013-09-18 01:45:00,
2013-09-17 21:50:00,67.6,61.9,30.20,ESE,108,0.0,0.0,82,0.00,,---,0.00,0.00,VWS V14.01,2013-09-18 01:50:00,
2013-09-17 21:55:00,67.4,61.7,30.20,ESE,108,0.0,0.0,82,0.00,,---,0.00,0.00,VWS V14.01,2013-09-18 01:55:00,
2013-09-17 22:00:00,67.2,61.5,30.20,ESE,108,0.0,0.0,82,0.00,,---,0.00,0.00,VWS V14.01,2013-09-18 02:00:00,
2013-09-17 22:05:00,67.0,61.3,30.20,ESE,108,0.0,0.0,82,0.00,,---,0.00,0.00,VWS V14.01,2013-09-18 02:05:00,
2013-09-17 22:10:00,66.8,61.1,30.20,ESE,108,0.0,0.0,82,0.00,,---,0.00,0.00,VWS V14.01,2013-09-18 02:10:00,
2013-09-17 22:15:00,66.6,60.9,30.20,ESE,108,0.0,0.0,82,0.00,,---,0.00,0.00,VWS V14.01,2013-09-18 02:15:00,
2013-09-17 22:20:00,66.5,61.5,30.20,ESE,108,0.0,0.0,84,0.00,,---,0.00,0.00,VWS V14.01,2013-09-18 02:20:00,
2013-09-17 22:25:00,66.3,61.3,30.20,ESE,108,0.0,0.0,84,0.00,,---,0.00,0.00,VWS V14.01,2013-09-18 02:25:00,
2013-09-17 22:31:00,66.1,61.1,30.20,ESE,108,0.0,0.0,84,0.00,,---,0.00,0.00,VWS V14.01,2013-09-18 02:31:00,
2013-09-17 22:36:00,66.0,61.4,30.20,ESE,108,0.0,0.0,85,0.00,,---,0.00,0.00,VWS V14.01,2013-09-18 02:36:00,
2013-09-17 22:41:00,65.8,61.5,30.20,ESE,108,0.0,0.0,86,0.00,,---,0.00,0.00,VWS V14.01,2013-09-18 02:41:00,
2013-09-17 22:46:00,65.7,61.4,30.20,ESE,108,0.0,0.0,86,0.00,,---,0.00,0.00,VWS V14.01,2013-09-18 02:46:00,
2013-09-17 22:51:00,65.6,61.6,30.21,ESE,108,0.0,0.0,87,0.00,,---,0.00,0.00,VWS V14.01,2013-09-18 02:51:00,
2013-09-17 22:56:00,65.5,61.5,30.20,ESE,108,0.0,0.0,87,0.00,,---,0.00,0.00,VWS V14.01,2013-09-18 02:56:00,
2013-09-17 23:02:00,65.4,61.4,30.20,ESE,108,0.0,0.0,87,0.00,,---,0.00,0.00,VWS V14.01,2013-09-18 03:02:00,
2013-09-17 23:07:00,65.3,61.3,30.20,ESE,108,0.0,0.0,87,0.00,,---,0.00,0.00,VWS V14.01,2013-09-18 03:07:00,
2013-09-17 23:12:00,65.2,61.2,30.20,ESE,108,0.0,0.0,87,0.00,,---,0.00,0.00,VWS V14.01,2013-09-18 03:12:00,
2013-09-17 23:17:00,65.2,61.2,30.20,ESE,108,0.0,0.0,87,0.00,,---,0.00,0.00,VWS V14.01,2013-09-18 03:17:00,
2013-09-17 23:22:00,65.1,60.8,30.20,ESE,108,0.0,0.0,86,0.00,,---,0.00,0.00,VWS V14.01,2013-09-18 03:22:00,
2013-09-17 23:27:00,65.0,60.7,30.20,ESE,108,0.0,0.0,86,0.00,,---,0.00,0.00,VWS V14.01,2013-09-18 03:27:00,
2013-09-17 23:32:00,64.9,60.6,30.20,ESE,108,0.0,0.0,86,0.00,,---,0.00,0.00,VWS V14.01,2013-09-18 03:32:00,
2013-09-17 23:37:00,64.7,60.4,30.20,ESE,108,0.0,0.0,86,0.00,,---,0.00,0.00,VWS V14.01,2013-09-18 03:37:00,
2013-09-17 23:42:00,64.6,60.3,30.20,ESE,108,0.0,0.0,86,0.00,,---,0.00,0.00,VWS V14.01,2013-09-18 03:42:00,
2013-09-17 23:47:00,64.5,59.9,30.20,ESE,108,0.0,0.0,85,0.00,,---,0.00,0.00,VWS V14.01,2013-09-18 03:47:00,
2013-09-17 23:53:00,64.4,59.8,30.20,ESE,108,0.0,0.0,85,0.00,,---,0.00,0.00,VWS V14.01,2013-09-18 03:53:00,
2013-09-17 23:58:00,64.3,59.7,30.20,ESE,108,0.0,0.0,85,0.00,,---,0.00,0.00,VWS V14.01,2013-09-18 03:58:00,